BCI572 EGJJ-LSZB
Flight info
| Callsign | BCI572 |
|---|---|
| Flight time | 1h 44m |
| Altitude | 21000 |
| Route | ORVAL DCT SENLO DCT LGL UN491 RESMI DCT AMODO DCT BRY/N0285F110 Y112 TRO DCT GOTED |
| Aircraft | AT76/M-SDFGIRY/S |
Departure
| Time | 2026-04-26 10:24 |
|---|---|
| Airport | Jersey Airport (EGJJ) |
Arrival
| Time | 2026-04-26 12:08 |
|---|---|
| Airport | Bern Airport (LSZB) |
| Time | Latitude | Longitude | Altitude | Speed | Heading |
|---|---|---|---|---|---|
| 2026-04-26 10:05 | 49.20485 | -2.19787 | 267 ft | 0 kts | 352° |
| 2026-04-26 10:17 | 49.20476 | -2.19785 | 270 ft | 4 kts | 352° |
| 2026-04-26 10:18 | 49.20450 | -2.19780 | 270 ft | 3 kts | 346° |
| 2026-04-26 10:18 | 49.20440 | -2.19771 | 271 ft | 2 kts | 278° |
| 2026-04-26 10:18 | 49.20440 | -2.19754 | 271 ft | 2 kts | 261° |
| 2026-04-26 10:18 | 49.20441 | -2.19748 | 271 ft | 0 kts | 261° |
| 2026-04-26 10:20 | 49.20439 | -2.19768 | 270 ft | 9 kts | 260° |
| 2026-04-26 10:20 | 49.20434 | -2.19882 | 271 ft | 12 kts | 279° |
| 2026-04-26 10:20 | 49.20491 | -2.19924 | 271 ft | 10 kts | 341° |
| 2026-04-26 10:21 | 49.20525 | -2.20021 | 272 ft | 12 kts | 288° |
| 2026-04-26 10:21 | 49.20550 | -2.20146 | 274 ft | 12 kts | 287° |
| 2026-04-26 10:21 | 49.20575 | -2.20273 | 276 ft | 13 kts | 284° |
| 2026-04-26 10:21 | 49.20603 | -2.20419 | 274 ft | 15 kts | 287° |
| 2026-04-26 10:22 | 49.20626 | -2.20577 | 274 ft | 15 kts | 272° |
| 2026-04-26 10:22 | 49.20651 | -2.20698 | 274 ft | 12 kts | 324° |
| 2026-04-26 10:22 | 49.20705 | -2.20652 | 271 ft | 9 kts | 70° |
| 2026-04-26 10:22 | 49.20705 | -2.20646 | 271 ft | 0 kts | 82° |
| 2026-04-26 10:23 | 49.20708 | -2.20616 | 273 ft | 17 kts | 82° |
| 2026-04-26 10:24 | 49.20747 | -2.20143 | 270 ft | 73 kts | 84° |
| 2026-04-26 10:24 | 49.20833 | -2.19105 | 284 ft | 121 kts | 81° |
| 2026-04-26 10:24 | 49.20994 | -2.17775 | 635 ft | 131 kts | 79° |
| 2026-04-26 10:24 | 49.21150 | -2.16353 | 1123 ft | 138 kts | 83° |
| 2026-04-26 10:25 | 49.21280 | -2.14899 | 1722 ft | 143 kts | 83° |
| 2026-04-26 10:25 | 49.21407 | -2.13369 | 2321 ft | 147 kts | 85° |
| 2026-04-26 10:25 | 49.21528 | -2.11789 | 2961 ft | 151 kts | 86° |
| 2026-04-26 10:25 | 49.21659 | -2.10139 | 3406 ft | 164 kts | 83° |
| 2026-04-26 10:26 | 49.21800 | -2.08338 | 3936 ft | 177 kts | 84° |
| 2026-04-26 10:26 | 49.21952 | -2.06420 | 4432 ft | 186 kts | 83° |
| 2026-04-26 10:26 | 49.21796 | -2.04481 | 4951 ft | 190 kts | 119° |
| 2026-04-26 10:26 | 49.20891 | -2.02964 | 5461 ft | 198 kts | 139° |
| 2026-04-26 10:27 | 49.19800 | -2.01648 | 6007 ft | 200 kts | 143° |
| 2026-04-26 10:27 | 49.18678 | -2.00406 | 6488 ft | 199 kts | 144° |
| 2026-04-26 10:27 | 49.17550 | -1.99168 | 6962 ft | 200 kts | 143° |
| 2026-04-26 10:27 | 49.16427 | -1.97906 | 7416 ft | 200 kts | 142° |
| 2026-04-26 10:28 | 49.15318 | -1.96619 | 7886 ft | 200 kts | 142° |
| 2026-04-26 10:28 | 49.14219 | -1.95331 | 8361 ft | 199 kts | 142° |
| 2026-04-26 10:28 | 49.13127 | -1.94037 | 8848 ft | 198 kts | 142° |
| 2026-04-26 10:28 | 49.12039 | -1.92752 | 9332 ft | 197 kts | 142° |
| 2026-04-26 10:29 | 49.10957 | -1.91477 | 9831 ft | 195 kts | 143° |
| 2026-04-26 10:29 | 49.09889 | -1.90218 | 10310 ft | 194 kts | 143° |
| 2026-04-26 10:29 | 49.08829 | -1.88963 | 10764 ft | 192 kts | 143° |
| 2026-04-26 10:29 | 49.07782 | -1.87714 | 11229 ft | 190 kts | 143° |
| 2026-04-26 10:30 | 49.06755 | -1.86474 | 11691 ft | 187 kts | 143° |
| 2026-04-26 10:30 | 49.05739 | -1.85252 | 12167 ft | 185 kts | 144° |
| 2026-04-26 10:30 | 49.04736 | -1.84063 | 12649 ft | 182 kts | 144° |
| 2026-04-26 10:30 | 49.03786 | -1.82814 | 13127 ft | 180 kts | 127° |
| 2026-04-26 10:31 | 49.03425 | -1.80902 | 13159 ft | 202 kts | 90° |
| 2026-04-26 10:31 | 49.03496 | -1.79059 | 13165 ft | 219 kts | 84° |
| 2026-04-26 10:31 | 49.03714 | -1.76645 | 13174 ft | 236 kts | 81° |
| 2026-04-26 10:31 | 49.03986 | -1.74105 | 13181 ft | 249 kts | 81° |
| 2026-04-26 10:32 | 49.04262 | -1.71445 | 13256 ft | 256 kts | 82° |
| 2026-04-26 10:32 | 49.04500 | -1.68779 | 13642 ft | 251 kts | 83° |
| 2026-04-26 10:32 | 49.04706 | -1.66152 | 14011 ft | 247 kts | 83° |
| 2026-04-26 10:32 | 49.04906 | -1.63568 | 14344 ft | 244 kts | 84° |
| 2026-04-26 10:33 | 49.05105 | -1.61017 | 14668 ft | 241 kts | 84° |
| 2026-04-26 10:33 | 49.05300 | -1.58487 | 15017 ft | 239 kts | 84° |
| 2026-04-26 10:33 | 49.05491 | -1.56007 | 15342 ft | 237 kts | 84° |
| 2026-04-26 10:33 | 49.05683 | -1.53529 | 15690 ft | 235 kts | 84° |
| 2026-04-26 10:34 | 49.05874 | -1.51065 | 16038 ft | 233 kts | 84° |
| 2026-04-26 10:34 | 49.06062 | -1.48615 | 16383 ft | 233 kts | 84° |
| 2026-04-26 10:34 | 49.06248 | -1.46173 | 16738 ft | 231 kts | 84° |
| 2026-04-26 10:34 | 49.06431 | -1.43739 | 17113 ft | 230 kts | 84° |
| 2026-04-26 10:35 | 49.06614 | -1.41309 | 17381 ft | 233 kts | 84° |
| 2026-04-26 10:35 | 49.06801 | -1.38840 | 17640 ft | 235 kts | 84° |
| 2026-04-26 10:35 | 49.06986 | -1.36361 | 17920 ft | 236 kts | 85° |
| 2026-04-26 10:35 | 49.07162 | -1.33856 | 18171 ft | 239 kts | 85° |
| 2026-04-26 10:36 | 49.07339 | -1.31321 | 18436 ft | 241 kts | 85° |
| 2026-04-26 10:36 | 49.07522 | -1.28773 | 18690 ft | 242 kts | 85° |
| 2026-04-26 10:36 | 49.07710 | -1.26214 | 18924 ft | 243 kts | 85° |
| 2026-04-26 10:36 | 49.07900 | -1.23644 | 19152 ft | 244 kts | 84° |
| 2026-04-26 10:37 | 49.08089 | -1.21106 | 19382 ft | 244 kts | 84° |
| 2026-04-26 10:37 | 49.08279 | -1.18531 | 19629 ft | 243 kts | 85° |
| 2026-04-26 10:37 | 49.08191 | -1.15995 | 19875 ft | 240 kts | 104° |
| 2026-04-26 10:37 | 49.07772 | -1.13537 | 20099 ft | 239 kts | 108° |
| 2026-04-26 10:38 | 49.07299 | -1.11116 | 20373 ft | 238 kts | 109° |
| 2026-04-26 10:38 | 49.06832 | -1.08686 | 20609 ft | 240 kts | 108° |
| 2026-04-26 10:38 | 49.06399 | -1.06224 | 20841 ft | 241 kts | 107° |
| 2026-04-26 10:38 | 49.05992 | -1.03752 | 21078 ft | 242 kts | 106° |
| 2026-04-26 10:39 | 49.05576 | -1.01226 | 21173 ft | 249 kts | 106° |
| 2026-04-26 10:39 | 49.05148 | -0.98624 | 21215 ft | 257 kts | 105° |
| 2026-04-26 10:39 | 49.04706 | -0.95945 | 21226 ft | 265 kts | 106° |
| 2026-04-26 10:39 | 49.04251 | -0.93192 | 21255 ft | 272 kts | 106° |
| 2026-04-26 10:40 | 49.03785 | -0.90361 | 21240 ft | 278 kts | 105° |
| 2026-04-26 10:40 | 49.03308 | -0.87485 | 21247 ft | 283 kts | 106° |
| 2026-04-26 10:40 | 49.02832 | -0.84613 | 21245 ft | 287 kts | 106° |
| 2026-04-26 10:40 | 49.02339 | -0.81646 | 21248 ft | 290 kts | 106° |
| 2026-04-26 10:41 | 49.01840 | -0.78653 | 21248 ft | 292 kts | 106° |
| 2026-04-26 10:41 | 49.01336 | -0.75638 | 21248 ft | 294 kts | 106° |
| 2026-04-26 10:41 | 49.00832 | -0.72621 | 21257 ft | 295 kts | 106° |
| 2026-04-26 10:41 | 49.00327 | -0.69598 | 21262 ft | 293 kts | 106° |
| 2026-04-26 10:42 | 48.99831 | -0.66646 | 21260 ft | 290 kts | 106° |
| 2026-04-26 10:42 | 48.99337 | -0.63685 | 21262 ft | 288 kts | 106° |
| 2026-04-26 10:42 | 48.98835 | -0.60741 | 21259 ft | 286 kts | 107° |
| 2026-04-26 10:42 | 48.98346 | -0.57810 | 21240 ft | 284 kts | 106° |
| 2026-04-26 10:43 | 48.97871 | -0.54899 | 21256 ft | 282 kts | 106° |
| 2026-04-26 10:43 | 48.97401 | -0.52017 | 21258 ft | 280 kts | 105° |
| 2026-04-26 10:43 | 48.96929 | -0.49138 | 21264 ft | 280 kts | 106° |
| 2026-04-26 10:43 | 48.96446 | -0.46270 | 21258 ft | 279 kts | 107° |
| 2026-04-26 10:44 | 48.95961 | -0.43418 | 21259 ft | 278 kts | 106° |
| 2026-04-26 10:44 | 48.95475 | -0.40562 | 21266 ft | 278 kts | 106° |
| 2026-04-26 10:44 | 48.94992 | -0.37724 | 21262 ft | 277 kts | 106° |
| 2026-04-26 10:44 | 48.94504 | -0.34887 | 21256 ft | 277 kts | 107° |
| 2026-04-26 10:45 | 48.94021 | -0.32052 | 21246 ft | 277 kts | 107° |
| 2026-04-26 10:45 | 48.93536 | -0.29218 | 21257 ft | 277 kts | 107° |
| 2026-04-26 10:45 | 48.93046 | -0.26388 | 21252 ft | 277 kts | 107° |
| 2026-04-26 10:45 | 48.92560 | -0.23546 | 21256 ft | 278 kts | 106° |
| 2026-04-26 10:46 | 48.92070 | -0.20702 | 21251 ft | 278 kts | 107° |
| 2026-04-26 10:46 | 48.91580 | -0.17861 | 21231 ft | 278 kts | 107° |
| 2026-04-26 10:46 | 48.91089 | -0.15025 | 21228 ft | 277 kts | 107° |
| 2026-04-26 10:46 | 48.90601 | -0.12199 | 21238 ft | 277 kts | 107° |
| 2026-04-26 10:47 | 48.90111 | -0.09377 | 21239 ft | 276 kts | 107° |
| 2026-04-26 10:47 | 48.89622 | -0.06555 | 21246 ft | 276 kts | 107° |
| 2026-04-26 10:47 | 48.89131 | -0.03738 | 21242 ft | 276 kts | 107° |
| 2026-04-26 10:47 | 48.88641 | -0.00926 | 21246 ft | 276 kts | 107° |
| 2026-04-26 10:48 | 48.88156 | 0.01856 | 21244 ft | 276 kts | 107° |
| 2026-04-26 10:48 | 48.87662 | 0.04674 | 21252 ft | 276 kts | 107° |
| 2026-04-26 10:48 | 48.87171 | 0.07491 | 21239 ft | 276 kts | 107° |
| 2026-04-26 10:48 | 48.86678 | 0.10311 | 21236 ft | 276 kts | 107° |
| 2026-04-26 10:49 | 48.86183 | 0.13129 | 21239 ft | 276 kts | 107° |
| 2026-04-26 10:49 | 48.85689 | 0.15944 | 21227 ft | 276 kts | 107° |
| 2026-04-26 10:49 | 48.85195 | 0.18749 | 21242 ft | 275 kts | 107° |
| 2026-04-26 10:49 | 48.84701 | 0.21555 | 21239 ft | 275 kts | 107° |
| 2026-04-26 10:50 | 48.84208 | 0.24352 | 21242 ft | 274 kts | 107° |
| 2026-04-26 10:50 | 48.83879 | 0.26205 | 21242 ft | 275 kts | 107° |
| 2026-04-26 10:50 | 48.83215 | 0.29952 | 21246 ft | 275 kts | 107° |
| 2026-04-26 10:50 | 48.82716 | 0.32762 | 21242 ft | 275 kts | 107° |
| 2026-04-26 10:51 | 48.82217 | 0.35565 | 21246 ft | 275 kts | 107° |
| 2026-04-26 10:51 | 48.81219 | 0.41171 | 21239 ft | 275 kts | 107° |
| 2026-04-26 10:51 | 48.80722 | 0.43959 | 21251 ft | 274 kts | 107° |
| 2026-04-26 10:52 | 48.80219 | 0.46758 | 21241 ft | 274 kts | 107° |
| 2026-04-26 10:52 | 48.79715 | 0.49547 | 21240 ft | 274 kts | 107° |
| 2026-04-26 10:52 | 48.79224 | 0.52302 | 21241 ft | 274 kts | 106° |
| 2026-04-26 10:52 | 48.78776 | 0.55112 | 21242 ft | 274 kts | 104° |
| 2026-04-26 10:53 | 48.78389 | 0.57944 | 21249 ft | 275 kts | 102° |
| 2026-04-26 10:53 | 48.78041 | 0.60790 | 21244 ft | 275 kts | 102° |
| 2026-04-26 10:53 | 48.77804 | 0.62717 | 21246 ft | 275 kts | 102° |
| 2026-04-26 10:54 | 48.77080 | 0.68401 | 21245 ft | 275 kts | 102° |
| 2026-04-26 10:54 | 48.76718 | 0.71209 | 21243 ft | 275 kts | 102° |
| 2026-04-26 10:54 | 48.76355 | 0.74051 | 21250 ft | 274 kts | 102° |
| 2026-04-26 10:54 | 48.76003 | 0.76782 | 21272 ft | 271 kts | 102° |
| 2026-04-26 10:55 | 48.75655 | 0.79499 | 21260 ft | 257 kts | 102° |
| 2026-04-26 10:55 | 48.75417 | 0.81368 | 21244 ft | 259 kts | 102° |
| 2026-04-26 10:55 | 48.75246 | 0.82737 | 21241 ft | 260 kts | 102° |
| 2026-04-26 10:55 | 48.74913 | 0.85442 | 21249 ft | 263 kts | 102° |
| 2026-04-26 10:56 | 48.74567 | 0.88181 | 21245 ft | 265 kts | 102° |
| 2026-04-26 10:56 | 48.74215 | 0.90930 | 21249 ft | 267 kts | 102° |
| 2026-04-26 10:56 | 48.73856 | 0.93691 | 21230 ft | 268 kts | 102° |
| 2026-04-26 10:56 | 48.73495 | 0.96465 | 21257 ft | 268 kts | 102° |
| 2026-04-26 10:57 | 48.73132 | 0.99243 | 21259 ft | 270 kts | 102° |
| 2026-04-26 10:57 | 48.72776 | 1.01995 | 21247 ft | 271 kts | 102° |
| 2026-04-26 10:57 | 48.72414 | 1.04777 | 21251 ft | 271 kts | 102° |
| 2026-04-26 10:57 | 48.72049 | 1.07578 | 21252 ft | 272 kts | 102° |
| 2026-04-26 10:58 | 48.71681 | 1.10392 | 21253 ft | 272 kts | 102° |
| 2026-04-26 10:58 | 48.71313 | 1.13206 | 21254 ft | 272 kts | 102° |
| 2026-04-26 10:58 | 48.70944 | 1.16014 | 21251 ft | 273 kts | 102° |
| 2026-04-26 10:58 | 48.70573 | 1.18837 | 21247 ft | 273 kts | 102° |
| 2026-04-26 10:59 | 48.70206 | 1.21621 | 21255 ft | 273 kts | 102° |
| 2026-04-26 10:59 | 48.69833 | 1.24445 | 21249 ft | 274 kts | 102° |
| 2026-04-26 10:59 | 48.69459 | 1.27279 | 21254 ft | 274 kts | 102° |
| 2026-04-26 10:59 | 48.69083 | 1.30107 | 21253 ft | 274 kts | 102° |
| 2026-04-26 11:00 | 48.68707 | 1.32939 | 21257 ft | 275 kts | 102° |
| 2026-04-26 11:00 | 48.68331 | 1.35781 | 21245 ft | 275 kts | 102° |
| 2026-04-26 11:00 | 48.67963 | 1.38538 | 21251 ft | 276 kts | 102° |
| 2026-04-26 11:00 | 48.67581 | 1.41384 | 21253 ft | 276 kts | 102° |
| 2026-04-26 11:01 | 48.67201 | 1.44227 | 21256 ft | 276 kts | 102° |
| 2026-04-26 11:01 | 48.66820 | 1.47073 | 21250 ft | 276 kts | 102° |
| 2026-04-26 11:01 | 48.66437 | 1.49923 | 21251 ft | 277 kts | 103° |
| 2026-04-26 11:01 | 48.66052 | 1.52779 | 21229 ft | 277 kts | 102° |
| 2026-04-26 11:02 | 48.65669 | 1.55630 | 21251 ft | 277 kts | 103° |
| 2026-04-26 11:02 | 48.65283 | 1.58490 | 21243 ft | 277 kts | 102° |
| 2026-04-26 11:02 | 48.64895 | 1.61345 | 21253 ft | 277 kts | 102° |
| 2026-04-26 11:02 | 48.64507 | 1.64200 | 21245 ft | 278 kts | 102° |
| 2026-04-26 11:03 | 48.64119 | 1.67063 | 21253 ft | 278 kts | 102° |
| 2026-04-26 11:03 | 48.63727 | 1.69921 | 21248 ft | 278 kts | 102° |
| 2026-04-26 11:03 | 48.63346 | 1.72703 | 21262 ft | 278 kts | 102° |
| 2026-04-26 11:03 | 48.62952 | 1.75560 | 21237 ft | 278 kts | 102° |
| 2026-04-26 11:04 | 48.62560 | 1.78409 | 21261 ft | 277 kts | 102° |
| 2026-04-26 11:04 | 48.62165 | 1.81273 | 21260 ft | 278 kts | 102° |
| 2026-04-26 11:04 | 48.61775 | 1.84097 | 21252 ft | 278 kts | 102° |
| 2026-04-26 11:04 | 48.61382 | 1.86954 | 21262 ft | 277 kts | 102° |
| 2026-04-26 11:05 | 48.60981 | 1.89808 | 21253 ft | 277 kts | 103° |
| 2026-04-26 11:05 | 48.60582 | 1.92655 | 21249 ft | 276 kts | 102° |
| 2026-04-26 11:05 | 48.60189 | 1.95491 | 21260 ft | 276 kts | 102° |
| 2026-04-26 11:05 | 48.59799 | 1.98336 | 21262 ft | 276 kts | 102° |
| 2026-04-26 11:06 | 48.59405 | 2.01166 | 21258 ft | 275 kts | 102° |
| 2026-04-26 11:06 | 48.59007 | 2.03992 | 21262 ft | 275 kts | 103° |
| 2026-04-26 11:06 | 48.58608 | 2.06820 | 21259 ft | 275 kts | 103° |
| 2026-04-26 11:06 | 48.58209 | 2.09645 | 21276 ft | 276 kts | 103° |
| 2026-04-26 11:07 | 48.57809 | 2.12481 | 21266 ft | 277 kts | 102° |
| 2026-04-26 11:07 | 48.57407 | 2.15328 | 21247 ft | 277 kts | 102° |
| 2026-04-26 11:07 | 48.57003 | 2.18179 | 21259 ft | 277 kts | 102° |
| 2026-04-26 11:07 | 48.56565 | 2.21006 | 21263 ft | 277 kts | 105° |
| 2026-04-26 11:08 | 48.56054 | 2.23816 | 21259 ft | 278 kts | 107° |
| 2026-04-26 11:08 | 48.55513 | 2.26624 | 21257 ft | 278 kts | 106° |
| 2026-04-26 11:08 | 48.54991 | 2.29397 | 21252 ft | 278 kts | 106° |
| 2026-04-26 11:08 | 48.54471 | 2.32194 | 21260 ft | 277 kts | 106° |
| 2026-04-26 11:09 | 48.53949 | 2.35003 | 21251 ft | 277 kts | 106° |
| 2026-04-26 11:09 | 48.53428 | 2.37802 | 21255 ft | 277 kts | 106° |
| 2026-04-26 11:09 | 48.52902 | 2.40598 | 21261 ft | 277 kts | 106° |
| 2026-04-26 11:09 | 48.52377 | 2.43399 | 21261 ft | 277 kts | 106° |
| 2026-04-26 11:10 | 48.51853 | 2.46187 | 21264 ft | 277 kts | 106° |
| 2026-04-26 11:10 | 48.51328 | 2.48991 | 21264 ft | 277 kts | 106° |
| 2026-04-26 11:10 | 48.50801 | 2.51796 | 21260 ft | 278 kts | 106° |
| 2026-04-26 11:10 | 48.50275 | 2.54594 | 21256 ft | 278 kts | 106° |
| 2026-04-26 11:11 | 48.49748 | 2.57376 | 21262 ft | 278 kts | 106° |
| 2026-04-26 11:11 | 48.49217 | 2.60185 | 21262 ft | 278 kts | 106° |
| 2026-04-26 11:11 | 48.48688 | 2.62983 | 21256 ft | 277 kts | 106° |
| 2026-04-26 11:11 | 48.48158 | 2.65779 | 21258 ft | 277 kts | 106° |
| 2026-04-26 11:12 | 48.47630 | 2.68560 | 21264 ft | 276 kts | 106° |
| 2026-04-26 11:12 | 48.47100 | 2.71344 | 21261 ft | 276 kts | 106° |
| 2026-04-26 11:12 | 48.46569 | 2.74123 | 21257 ft | 276 kts | 106° |
| 2026-04-26 11:12 | 48.46038 | 2.76904 | 21259 ft | 275 kts | 106° |
| 2026-04-26 11:13 | 48.45510 | 2.79676 | 21259 ft | 275 kts | 106° |
| 2026-04-26 11:13 | 48.44985 | 2.82410 | 21268 ft | 276 kts | 106° |
| 2026-04-26 11:13 | 48.44452 | 2.85190 | 21261 ft | 277 kts | 106° |
| 2026-04-26 11:13 | 48.43917 | 2.87982 | 21256 ft | 277 kts | 106° |
| 2026-04-26 11:14 | 48.43378 | 2.90775 | 21259 ft | 278 kts | 106° |
| 2026-04-26 11:14 | 48.42838 | 2.93575 | 21246 ft | 278 kts | 106° |
| 2026-04-26 11:14 | 48.42302 | 2.96371 | 21245 ft | 278 kts | 106° |
| 2026-04-26 11:14 | 48.41812 | 2.99189 | 21246 ft | 277 kts | 98° |
| 2026-04-26 11:15 | 48.41650 | 3.02063 | 21245 ft | 275 kts | 90° |
| 2026-04-26 11:15 | 48.41620 | 3.04943 | 21240 ft | 275 kts | 89° |
| 2026-04-26 11:15 | 48.41583 | 3.07822 | 21242 ft | 275 kts | 90° |
| 2026-04-26 11:15 | 48.41497 | 3.10704 | 21238 ft | 276 kts | 92° |
| 2026-04-26 11:16 | 48.41376 | 3.13580 | 21233 ft | 276 kts | 92° |
| 2026-04-26 11:16 | 48.41263 | 3.16340 | 21237 ft | 275 kts | 92° |
| 2026-04-26 11:16 | 48.41221 | 3.17385 | 21237 ft | 275 kts | 92° |
| 2026-04-26 11:16 | 48.41107 | 3.20257 | 21240 ft | 275 kts | 92° |
| 2026-04-26 11:17 | 48.40996 | 3.23129 | 21240 ft | 275 kts | 92° |
| 2026-04-26 11:17 | 48.40880 | 3.26000 | 21240 ft | 275 kts | 92° |
| 2026-04-26 11:17 | 48.40767 | 3.28866 | 21244 ft | 274 kts | 92° |
| 2026-04-26 11:17 | 48.40409 | 3.31675 | 21242 ft | 275 kts | 108° |
| 2026-04-26 11:18 | 48.39720 | 3.34369 | 21233 ft | 276 kts | 112° |
| 2026-04-26 11:18 | 48.38994 | 3.37045 | 21237 ft | 277 kts | 111° |
| 2026-04-26 11:18 | 48.38298 | 3.39758 | 21234 ft | 277 kts | 109° |
| 2026-04-26 11:18 | 48.37664 | 3.42480 | 21237 ft | 277 kts | 108° |
| 2026-04-26 11:19 | 48.37043 | 3.45236 | 21233 ft | 277 kts | 108° |
| 2026-04-26 11:19 | 48.36413 | 3.47975 | 21233 ft | 277 kts | 108° |
| 2026-04-26 11:19 | 48.35778 | 3.50707 | 21231 ft | 277 kts | 108° |
| 2026-04-26 11:19 | 48.35143 | 3.53441 | 21237 ft | 277 kts | 108° |
| 2026-04-26 11:20 | 48.34507 | 3.56177 | 21231 ft | 277 kts | 108° |
| 2026-04-26 11:20 | 48.34087 | 3.57991 | 21233 ft | 277 kts | 108° |
| 2026-04-26 11:20 | 48.33235 | 3.61649 | 21237 ft | 278 kts | 108° |
| 2026-04-26 11:20 | 48.32596 | 3.64388 | 21243 ft | 278 kts | 108° |
| 2026-04-26 11:21 | 48.31956 | 3.67129 | 21244 ft | 278 kts | 108° |
| 2026-04-26 11:21 | 48.31316 | 3.69874 | 21227 ft | 279 kts | 108° |
| 2026-04-26 11:21 | 48.30674 | 3.72617 | 21232 ft | 278 kts | 108° |
| 2026-04-26 11:21 | 48.30040 | 3.75322 | 21243 ft | 278 kts | 108° |
| 2026-04-26 11:22 | 48.29399 | 3.78065 | 21242 ft | 278 kts | 108° |
| 2026-04-26 11:22 | 48.28754 | 3.80803 | 21235 ft | 279 kts | 108° |
| 2026-04-26 11:22 | 48.28108 | 3.83552 | 21240 ft | 279 kts | 108° |
| 2026-04-26 11:22 | 48.27462 | 3.86297 | 21236 ft | 279 kts | 108° |
| 2026-04-26 11:23 | 48.26814 | 3.89042 | 21228 ft | 279 kts | 108° |
| 2026-04-26 11:23 | 48.26169 | 3.91784 | 21239 ft | 278 kts | 108° |
| 2026-04-26 11:23 | 48.25520 | 3.94521 | 21236 ft | 279 kts | 108° |
| 2026-04-26 11:23 | 48.24803 | 3.97211 | 21240 ft | 278 kts | 118° |
| 2026-04-26 11:24 | 48.23740 | 3.99638 | 21238 ft | 279 kts | 126° |
| 2026-04-26 11:24 | 48.22556 | 4.01944 | 21240 ft | 279 kts | 128° |
| 2026-04-26 11:24 | 48.21367 | 4.04240 | 21242 ft | 279 kts | 127° |
| 2026-04-26 11:24 | 48.20209 | 4.06580 | 21240 ft | 279 kts | 125° |
| 2026-04-26 11:25 | 48.19089 | 4.08952 | 21239 ft | 279 kts | 124° |
| 2026-04-26 11:25 | 48.17970 | 4.11327 | 21237 ft | 279 kts | 125° |
| 2026-04-26 11:25 | 48.16841 | 4.13699 | 21239 ft | 279 kts | 125° |
| 2026-04-26 11:25 | 48.15711 | 4.16072 | 21237 ft | 280 kts | 125° |
| 2026-04-26 11:26 | 48.14582 | 4.18440 | 21237 ft | 280 kts | 125° |
| 2026-04-26 11:26 | 48.13448 | 4.20815 | 21215 ft | 280 kts | 125° |
| 2026-04-26 11:26 | 48.12319 | 4.23181 | 21229 ft | 279 kts | 125° |
| 2026-04-26 11:26 | 48.11204 | 4.25513 | 21226 ft | 279 kts | 125° |
| 2026-04-26 11:27 | 48.10075 | 4.27878 | 21236 ft | 279 kts | 125° |
| 2026-04-26 11:27 | 48.08941 | 4.30245 | 21227 ft | 280 kts | 125° |
| 2026-04-26 11:27 | 48.07811 | 4.32605 | 21225 ft | 280 kts | 125° |
| 2026-04-26 11:27 | 48.06674 | 4.34975 | 21223 ft | 280 kts | 125° |
| 2026-04-26 11:28 | 48.05540 | 4.37338 | 21209 ft | 280 kts | 125° |
| 2026-04-26 11:28 | 48.04400 | 4.39710 | 21219 ft | 280 kts | 125° |
| 2026-04-26 11:28 | 48.03264 | 4.42076 | 21223 ft | 280 kts | 125° |
| 2026-04-26 11:28 | 48.02124 | 4.44446 | 21214 ft | 281 kts | 125° |
| 2026-04-26 11:29 | 48.00984 | 4.46811 | 21222 ft | 281 kts | 125° |
| 2026-04-26 11:29 | 47.99842 | 4.49179 | 21199 ft | 281 kts | 125° |
| 2026-04-26 11:29 | 47.98701 | 4.51547 | 21210 ft | 280 kts | 125° |
| 2026-04-26 11:29 | 47.97561 | 4.53905 | 21226 ft | 280 kts | 125° |
| 2026-04-26 11:30 | 47.96424 | 4.56263 | 21211 ft | 280 kts | 125° |
| 2026-04-26 11:30 | 47.95667 | 4.57826 | 21197 ft | 280 kts | 125° |
| 2026-04-26 11:30 | 47.94144 | 4.60974 | 21207 ft | 279 kts | 125° |
| 2026-04-26 11:30 | 47.93008 | 4.63320 | 21211 ft | 279 kts | 124° |
| 2026-04-26 11:31 | 47.91869 | 4.65667 | 21212 ft | 279 kts | 125° |
| 2026-04-26 11:31 | 47.90732 | 4.68011 | 21216 ft | 279 kts | 125° |
| 2026-04-26 11:31 | 47.89591 | 4.70357 | 21211 ft | 280 kts | 124° |
| 2026-04-26 11:31 | 47.88448 | 4.72710 | 21191 ft | 280 kts | 125° |
| 2026-04-26 11:32 | 47.87304 | 4.75059 | 21204 ft | 280 kts | 124° |
| 2026-04-26 11:32 | 47.86164 | 4.77404 | 21204 ft | 279 kts | 124° |
| 2026-04-26 11:32 | 47.85040 | 4.79707 | 21207 ft | 279 kts | 125° |
| 2026-04-26 11:32 | 47.83903 | 4.82041 | 21205 ft | 278 kts | 124° |
| 2026-04-26 11:33 | 47.82768 | 4.84374 | 21194 ft | 278 kts | 124° |
| 2026-04-26 11:33 | 47.81636 | 4.86702 | 21199 ft | 278 kts | 124° |
| 2026-04-26 11:33 | 47.80506 | 4.89040 | 21202 ft | 277 kts | 124° |
| 2026-04-26 11:33 | 47.79393 | 4.91381 | 21201 ft | 277 kts | 124° |
| 2026-04-26 11:34 | 47.78270 | 4.93710 | 21211 ft | 277 kts | 125° |
| 2026-04-26 11:34 | 47.77133 | 4.96027 | 21208 ft | 278 kts | 124° |
| 2026-04-26 11:34 | 47.75988 | 4.98361 | 21205 ft | 279 kts | 125° |
| 2026-04-26 11:34 | 47.74842 | 5.00694 | 21189 ft | 279 kts | 125° |
| 2026-04-26 11:35 | 47.73698 | 5.03020 | 21203 ft | 279 kts | 124° |
| 2026-04-26 11:35 | 47.72549 | 5.05350 | 21206 ft | 279 kts | 125° |
| 2026-04-26 11:35 | 47.71403 | 5.07679 | 21176 ft | 280 kts | 124° |
| 2026-04-26 11:35 | 47.70642 | 5.09226 | 21190 ft | 279 kts | 125° |
| 2026-04-26 11:36 | 47.69109 | 5.12334 | 21199 ft | 279 kts | 125° |
| 2026-04-26 11:36 | 47.67959 | 5.14664 | 21196 ft | 279 kts | 125° |
| 2026-04-26 11:36 | 47.66810 | 5.16991 | 21187 ft | 279 kts | 125° |
| 2026-04-26 11:36 | 47.65659 | 5.19316 | 21193 ft | 279 kts | 125° |
| 2026-04-26 11:37 | 47.64515 | 5.21629 | 21187 ft | 278 kts | 125° |
| 2026-04-26 11:37 | 47.63367 | 5.23943 | 21195 ft | 278 kts | 125° |
| 2026-04-26 11:37 | 47.62221 | 5.26258 | 21201 ft | 279 kts | 125° |
| 2026-04-26 11:37 | 47.61071 | 5.28575 | 21195 ft | 279 kts | 125° |
| 2026-04-26 11:38 | 47.59921 | 5.30891 | 21190 ft | 279 kts | 125° |
| 2026-04-26 11:38 | 47.58771 | 5.33206 | 21192 ft | 279 kts | 125° |
| 2026-04-26 11:38 | 47.57632 | 5.35496 | 21172 ft | 279 kts | 125° |
| 2026-04-26 11:38 | 47.56468 | 5.37840 | 21187 ft | 278 kts | 125° |
| 2026-04-26 11:39 | 47.55320 | 5.40146 | 21185 ft | 278 kts | 125° |
| 2026-04-26 11:39 | 47.54186 | 5.42422 | 21191 ft | 278 kts | 125° |
| 2026-04-26 11:39 | 47.53037 | 5.44723 | 21193 ft | 278 kts | 125° |
| 2026-04-26 11:39 | 47.51978 | 5.47115 | 21186 ft | 277 kts | 115° |
| 2026-04-26 11:40 | 47.51220 | 5.49711 | 21181 ft | 275 kts | 109° |
| 2026-04-26 11:40 | 47.50549 | 5.52363 | 21185 ft | 275 kts | 108° |
| 2026-04-26 11:40 | 47.49862 | 5.55003 | 21179 ft | 275 kts | 110° |
| 2026-04-26 11:40 | 47.49127 | 5.57616 | 21181 ft | 275 kts | 111° |
| 2026-04-26 11:41 | 47.48360 | 5.60209 | 21179 ft | 276 kts | 111° |
| 2026-04-26 11:42 | 47.43317 | 5.77573 | 21187 ft | 277 kts | 111° |
| 2026-04-26 11:43 | 47.42553 | 5.80191 | 21184 ft | 278 kts | 111° |
| 2026-04-26 11:43 | 47.41796 | 5.82781 | 21179 ft | 277 kts | 112° |
| 2026-04-26 11:43 | 47.41032 | 5.85395 | 21175 ft | 278 kts | 111° |
| 2026-04-26 11:43 | 47.40492 | 5.87235 | 21182 ft | 278 kts | 111° |
| 2026-04-26 11:44 | 47.39724 | 5.89859 | 21163 ft | 278 kts | 111° |
| 2026-04-26 11:44 | 47.38957 | 5.92463 | 21177 ft | 277 kts | 112° |
| 2026-04-26 11:44 | 47.38192 | 5.95070 | 21184 ft | 277 kts | 112° |
| 2026-04-26 11:44 | 47.37427 | 5.97672 | 21184 ft | 277 kts | 112° |
| 2026-04-26 11:45 | 47.36657 | 6.00290 | 21157 ft | 277 kts | 112° |
| 2026-04-26 11:45 | 47.35891 | 6.02897 | 21174 ft | 277 kts | 112° |
| 2026-04-26 11:45 | 47.35123 | 6.05495 | 21175 ft | 277 kts | 112° |
| 2026-04-26 11:45 | 47.34353 | 6.08104 | 21181 ft | 277 kts | 112° |
| 2026-04-26 11:46 | 47.33581 | 6.10710 | 21179 ft | 278 kts | 112° |
| 2026-04-26 11:46 | 47.32818 | 6.13290 | 21183 ft | 278 kts | 112° |
| 2026-04-26 11:46 | 47.32037 | 6.15935 | 21179 ft | 278 kts | 112° |
| 2026-04-26 11:46 | 47.31271 | 6.18520 | 21166 ft | 278 kts | 112° |
| 2026-04-26 11:47 | 47.30497 | 6.21132 | 21171 ft | 278 kts | 112° |
| 2026-04-26 11:47 | 47.29723 | 6.23738 | 21182 ft | 278 kts | 112° |
| 2026-04-26 11:47 | 47.28992 | 6.26193 | 21176 ft | 278 kts | 112° |
| 2026-04-26 11:47 | 47.28216 | 6.28803 | 21178 ft | 278 kts | 112° |
| 2026-04-26 11:48 | 47.27437 | 6.31414 | 21173 ft | 278 kts | 112° |
| 2026-04-26 11:48 | 47.26661 | 6.34022 | 21179 ft | 278 kts | 112° |
| 2026-04-26 11:48 | 47.25881 | 6.36631 | 21171 ft | 278 kts | 112° |
| 2026-04-26 11:48 | 47.25101 | 6.39237 | 21185 ft | 278 kts | 113° |
| 2026-04-26 11:49 | 47.24319 | 6.41855 | 21196 ft | 279 kts | 112° |
| 2026-04-26 11:49 | 47.23534 | 6.44478 | 21190 ft | 280 kts | 113° |
| 2026-04-26 11:49 | 47.22746 | 6.47104 | 21172 ft | 281 kts | 113° |
| 2026-04-26 11:49 | 47.21959 | 6.49730 | 21188 ft | 281 kts | 113° |
| 2026-04-26 11:50 | 47.21172 | 6.52348 | 21189 ft | 280 kts | 113° |
| 2026-04-26 11:50 | 47.20383 | 6.54967 | 21181 ft | 280 kts | 113° |
| 2026-04-26 11:50 | 47.19604 | 6.57550 | 21196 ft | 279 kts | 113° |
| 2026-04-26 11:50 | 47.18818 | 6.60152 | 21204 ft | 279 kts | 113° |
| 2026-04-26 11:51 | 47.18032 | 6.62753 | 21204 ft | 278 kts | 114° |
| 2026-04-26 11:51 | 47.17246 | 6.65358 | 21204 ft | 278 kts | 114° |
| 2026-04-26 11:51 | 47.16460 | 6.67957 | 21160 ft | 280 kts | 114° |
| 2026-04-26 11:51 | 47.15647 | 6.70649 | 20781 ft | 295 kts | 114° |
| 2026-04-26 11:52 | 47.14794 | 6.73460 | 20366 ft | 308 kts | 114° |
| 2026-04-26 11:52 | 47.13908 | 6.76380 | 19939 ft | 318 kts | 114° |
| 2026-04-26 11:52 | 47.12997 | 6.79381 | 19499 ft | 326 kts | 114° |
| 2026-04-26 11:52 | 47.12063 | 6.82448 | 19064 ft | 332 kts | 114° |
| 2026-04-26 11:53 | 47.11117 | 6.85557 | 18622 ft | 337 kts | 115° |
| 2026-04-26 11:53 | 47.10270 | 6.88334 | 18209 ft | 340 kts | 114° |
| 2026-04-26 11:53 | 47.09442 | 6.91046 | 17852 ft | 340 kts | 115° |
| 2026-04-26 11:54 | 47.07640 | 6.96937 | 16952 ft | 298 kts | 115° |
| 2026-04-26 11:54 | 47.06795 | 6.99714 | 16492 ft | 298 kts | 115° |
| 2026-04-26 11:54 | 47.05944 | 7.02479 | 16025 ft | 296 kts | 115° |
| 2026-04-26 11:54 | 47.05100 | 7.05227 | 15556 ft | 295 kts | 114° |
| 2026-04-26 11:55 | 47.04265 | 7.07954 | 15116 ft | 293 kts | 114° |
| 2026-04-26 11:55 | 47.03466 | 7.10674 | 14704 ft | 288 kts | 107° |
| 2026-04-26 11:55 | 47.03311 | 7.13221 | 14319 ft | 286 kts | 81° |
| 2026-04-26 11:56 | 47.03619 | 7.15563 | 13958 ft | 282 kts | 77° |
| 2026-04-26 11:56 | 47.03949 | 7.18383 | 13502 ft | 280 kts | 82° |
| 2026-04-26 11:56 | 47.04129 | 7.21222 | 13051 ft | 279 kts | 87° |
| 2026-04-26 11:56 | 47.04092 | 7.24055 | 12631 ft | 278 kts | 94° |
| 2026-04-26 11:57 | 47.03858 | 7.26864 | 12233 ft | 276 kts | 99° |
| 2026-04-26 11:57 | 47.03461 | 7.29603 | 11839 ft | 274 kts | 104° |
| 2026-04-26 11:57 | 47.02884 | 7.32254 | 11469 ft | 272 kts | 110° |
| 2026-04-26 11:57 | 47.02165 | 7.34782 | 11044 ft | 258 kts | 118° |
| 2026-04-26 11:58 | 47.00949 | 7.36620 | 10563 ft | 255 kts | 149° |
| 2026-04-26 11:58 | 46.99370 | 7.37816 | 10153 ft | 256 kts | 157° |
| 2026-04-26 11:58 | 46.97669 | 7.38594 | 9712 ft | 257 kts | 168° |
| 2026-04-26 11:58 | 46.95904 | 7.39014 | 9283 ft | 257 kts | 172° |
| 2026-04-26 11:59 | 46.94131 | 7.39334 | 8869 ft | 256 kts | 173° |
| 2026-04-26 11:59 | 46.92365 | 7.39651 | 8471 ft | 255 kts | 172° |
| 2026-04-26 11:59 | 46.90609 | 7.39996 | 8094 ft | 255 kts | 171° |
| 2026-04-26 11:59 | 46.88861 | 7.40396 | 7753 ft | 252 kts | 170° |
| 2026-04-26 12:00 | 46.87132 | 7.40812 | 7422 ft | 252 kts | 169° |
| 2026-04-26 12:00 | 46.85466 | 7.41457 | 7084 ft | 247 kts | 151° |
| 2026-04-26 12:00 | 46.84135 | 7.43002 | 6778 ft | 244 kts | 135° |
| 2026-04-26 12:00 | 46.82982 | 7.44813 | 6372 ft | 243 kts | 130° |
| 2026-04-26 12:01 | 46.81894 | 7.46693 | 6111 ft | 240 kts | 128° |
| 2026-04-26 12:01 | 46.80848 | 7.48450 | 5838 ft | 220 kts | 129° |
| 2026-04-26 12:01 | 46.79893 | 7.50041 | 5732 ft | 198 kts | 129° |
| 2026-04-26 12:01 | 46.79027 | 7.51445 | 5720 ft | 181 kts | 130° |
| 2026-04-26 12:02 | 46.78164 | 7.52834 | 5663 ft | 193 kts | 129° |
| 2026-04-26 12:02 | 46.77211 | 7.54361 | 5643 ft | 207 kts | 131° |
| 2026-04-26 12:02 | 46.76216 | 7.55895 | 5672 ft | 214 kts | 131° |
| 2026-04-26 12:02 | 46.75277 | 7.57596 | 5706 ft | 217 kts | 114° |
| 2026-04-26 12:03 | 46.75100 | 7.59629 | 5717 ft | 187 kts | 81° |
| 2026-04-26 12:03 | 46.75344 | 7.61343 | 5694 ft | 163 kts | 73° |
| 2026-04-26 12:03 | 46.75732 | 7.62821 | 5682 ft | 151 kts | 52° |
| 2026-04-26 12:03 | 46.76597 | 7.63559 | 5737 ft | 144 kts | 23° |
| 2026-04-26 12:04 | 46.77554 | 7.64119 | 5685 ft | 152 kts | 22° |
| 2026-04-26 12:04 | 46.78577 | 7.64685 | 5687 ft | 162 kts | 16° |
| 2026-04-26 12:04 | 46.79634 | 7.64362 | 5651 ft | 154 kts | 326° |
| 2026-04-26 12:04 | 46.80420 | 7.63392 | 5630 ft | 144 kts | 323° |
| 2026-04-26 12:05 | 46.81197 | 7.62389 | 5359 ft | 153 kts | 319° |
| 2026-04-26 12:05 | 46.82010 | 7.61306 | 5088 ft | 165 kts | 321° |
| 2026-04-26 12:05 | 46.82877 | 7.60238 | 4870 ft | 161 kts | 323° |
| 2026-04-26 12:05 | 46.83706 | 7.59197 | 4476 ft | 150 kts | 322° |
| 2026-04-26 12:06 | 46.84480 | 7.58259 | 4323 ft | 140 kts | 324° |
| 2026-04-26 12:06 | 46.85197 | 7.57361 | 4079 ft | 133 kts | 322° |
| 2026-04-26 12:06 | 46.85899 | 7.56467 | 3644 ft | 134 kts | 323° |
| 2026-04-26 12:06 | 46.86603 | 7.55625 | 3236 ft | 130 kts | 324° |
| 2026-04-26 12:07 | 46.87304 | 7.54769 | 2871 ft | 133 kts | 322° |
| 2026-04-26 12:07 | 46.87987 | 7.53924 | 2631 ft | 124 kts | 323° |
| 2026-04-26 12:07 | 46.88603 | 7.53149 | 2503 ft | 110 kts | 324° |
| 2026-04-26 12:07 | 46.89246 | 7.52360 | 2350 ft | 130 kts | 325° |
| 2026-04-26 12:08 | 46.89900 | 7.51512 | 2100 ft | 122 kts | 327° |
| 2026-04-26 12:08 | 46.90558 | 7.50746 | 1772 ft | 119 kts | 326° |
| 2026-04-26 12:08 | 46.91153 | 7.50043 | 1686 ft | 69 kts | 326° |
| 2026-04-26 12:08 | 46.91345 | 7.49802 | 1683 ft | 23 kts | 317° |
| 2026-04-26 12:09 | 46.91413 | 7.49718 | 1681 ft | 3 kts | 33° |
| 2026-04-26 12:09 | 46.91390 | 7.49748 | 1684 ft | 12 kts | 146° |
| 2026-04-26 12:09 | 46.91292 | 7.49862 | 1677 ft | 17 kts | 140° |
| 2026-04-26 12:09 | 46.91253 | 7.49957 | 1686 ft | 6 kts | 63° |
| 2026-04-26 12:10 | 46.91277 | 7.50002 | 1681 ft | 6 kts | 54° |
| 2026-04-26 12:10 | 46.91296 | 7.50050 | 1685 ft | 5 kts | 64° |
| 2026-04-26 12:10 | 46.91308 | 7.50097 | 1682 ft | 4 kts | 86° |
| 2026-04-26 12:10 | 46.91308 | 7.50102 | 1681 ft | 0 kts | 90° |